Отчет УТП Минеральные Воды 23.02.2022

23 Февраля 2022 года с 15 до 17 UTC в аэропорту Минеральных Вод (URMM) прошли учебно-тренировочные полеты в сети IVAO.

В работе был Минводы-Старт, Минводы-Круг и Ростов-Контроль.

Погода во время УТП:

METAR URMM 231630Z 00000MPS 8000 NSC 06/02 Q1017
R12/090070 NOSIG RMK QFE734/0979=

Движение в воздухе было загруженным, 5 бортов курсантов выполняли полёты.

После полётов курсантов ожидал разбор полётов, где каждый услышал замечания от Инструктора.